Terminal Aerodrome Forecast
Issued by NWS Sterling, VA

Home | Current Version | Previous Version | Text Only | Print | Product List | Glossary On
Versions: 1 2 3 4 5 6 7 8 9 10 11 12 13 14 15 16 17 18 19 20 21
000
FTUS41 KLWX 192300
TAFIAD
TAF
KIAD 192330Z 2000/2106 13005KT P6SM BKN070 BKN100
     FM200600 15004KT 5SM BR SCT025 BKN045
     FM200800 00000KT 5SM BR SCT025 BKN035
     FM201300 VRB03KT P6SM SCT008 BKN040
     FM201700 17007KT P6SM SCT050=

USA.gov is the U.S. government's official web portal to all federal, state and local government web resources and services.